createdAt,value
2018-10-18T00:00:47.527Z,937.7
2018-10-18T00:01:47.426Z,937.5
2018-10-18T00:02:47.354Z,937.6
2018-10-18T00:03:47.279Z,937.6
2018-10-18T00:04:47.239Z,937.5
2018-10-18T00:05:47.165Z,937.7
2018-10-18T00:06:47.079Z,937.6
2018-10-18T00:07:47.288Z,937.6
2018-10-18T00:08:47.027Z,937.7
2018-10-18T00:09:46.773Z,937.1
2018-10-18T00:10:46.513Z,937.6
2018-10-18T00:11:46.262Z,937.6
2018-10-18T00:12:46.015Z,937.6
2018-10-18T00:13:45.744Z,937.7
2018-10-18T00:14:45.499Z,937.7
2018-10-18T00:15:45.248Z,937.7
2018-10-18T00:16:44.997Z,937.7
2018-10-18T00:17:45.339Z,937.7
2018-10-18T00:18:45.276Z,937.7
2018-10-18T00:19:45.179Z,937.7
2018-10-18T00:20:45.088Z,937.6
2018-10-18T00:21:45.032Z,937.6
2018-10-18T00:22:44.947Z,937.7
2018-10-18T00:23:44.856Z,937.7
2018-10-18T00:24:44.783Z,937.7
2018-10-18T00:25:44.682Z,937.8
2018-10-18T00:26:44.590Z,937.7
2018-10-18T00:27:44.977Z,937.8
2018-10-18T00:28:44.904Z,937.8
2018-10-18T00:29:44.865Z,937.6
2018-10-18T00:30:44.792Z,937.7
2018-10-18T00:31:44.716Z,937.7
2018-10-18T00:32:44.644Z,937.7
2018-10-18T00:33:44.558Z,937.8
2018-10-18T00:34:44.469Z,937.6
2018-10-18T00:35:44.379Z,937.7
2018-10-18T00:36:44.305Z,937.8
2018-10-18T00:37:44.702Z,937.6
2018-10-18T00:38:44.628Z,937.7
2018-10-18T00:39:44.530Z,937.8
2018-10-18T00:40:44.453Z,937.6
2018-10-18T00:41:44.373Z,937.7
2018-10-18T00:42:44.299Z,937.7
2018-10-18T00:43:44.224Z,937.7
2018-10-18T00:44:44.148Z,937.8
2018-10-18T00:45:44.068Z,937.7
2018-10-18T00:46:43.967Z,937.7
2018-10-18T00:47:44.313Z,937.7
2018-10-18T00:48:44.235Z,937.7
2018-10-18T00:49:44.155Z,937.6
2018-10-18T00:50:44.074Z,937.5
2018-10-18T00:51:44.004Z,937.6
2018-10-18T00:52:43.926Z,937.6
2018-10-18T00:53:43.859Z,937.5
2018-10-18T00:54:43.787Z,937.5
2018-10-18T00:55:43.700Z,937.5
2018-10-18T00:56:43.651Z,937.6
2018-10-18T00:57:44.007Z,937.5
2018-10-18T00:58:43.917Z,937.4
2018-10-18T00:59:43.857Z,937.5
2018-10-18T01:00:43.768Z,937.6
2018-10-18T01:01:43.678Z,937.6
2018-10-18T01:02:43.616Z,937.5
2018-10-18T01:03:43.557Z,937.5
2018-10-18T01:04:43.490Z,937.5
2018-10-18T01:05:43.427Z,937.6
2018-10-18T01:06:43.332Z,937.5
2018-10-18T01:07:43.761Z,937.5
2018-10-18T01:08:43.680Z,937.5
2018-10-18T01:09:43.596Z,937.5
2018-10-18T01:10:43.549Z,937.5
2018-10-18T01:11:43.456Z,937.5
2018-10-18T01:12:44.506Z,937.5
2018-10-18T01:13:44.479Z,937.7
2018-10-18T01:14:44.396Z,937.5
2018-10-18T01:15:44.334Z,937.6
2018-10-18T01:16:44.249Z,937.5
2018-10-18T01:17:44.624Z,937.6
2018-10-18T01:18:44.525Z,937.6
2018-10-18T01:19:44.456Z,937.6
2018-10-18T01:20:44.408Z,937.6
2018-10-18T01:21:44.326Z,937.6
2018-10-18T01:22:44.233Z,937.6
2018-10-18T01:23:44.167Z,937.6
2018-10-18T01:24:44.106Z,937.5
2018-10-18T01:25:44.010Z,937.2
2018-10-18T01:26:43.958Z,937.6
2018-10-18T01:27:44.330Z,937.6
2018-10-18T01:28:44.247Z,937.5
2018-10-18T01:29:44.162Z,937.5
2018-10-18T01:30:44.084Z,937.6
2018-10-18T01:31:43.988Z,937.5
2018-10-18T01:32:43.915Z,937.5
2018-10-18T01:33:43.842Z,937.4
2018-10-18T01:34:43.780Z,937.5
2018-10-18T01:35:43.688Z,937.5
2018-10-18T01:36:43.638Z,937.5
2018-10-18T01:37:44.000Z,937.5
2018-10-18T01:38:43.910Z,937.5
2018-10-18T01:39:43.829Z,937.5
2018-10-18T01:40:43.730Z,937.5
2018-10-18T01:41:43.635Z,937.5
2018-10-18T01:42:43.582Z,937.5
2018-10-18T01:43:43.503Z,937.5
2018-10-18T01:44:43.455Z,937.5
2018-10-18T01:45:43.362Z,937.5
2018-10-18T01:46:43.257Z,937.5
2018-10-18T01:47:43.664Z,937.5
2018-10-18T01:48:43.582Z,937.5
2018-10-18T01:49:43.476Z,937.5
2018-10-18T01:50:43.386Z,937.5
2018-10-18T01:51:43.333Z,937.5
2018-10-18T01:52:43.244Z,937.5
2018-10-18T01:53:43.209Z,937.5
2018-10-18T01:54:43.130Z,937.5
2018-10-18T01:55:43.041Z,937.4
2018-10-18T01:56:42.952Z,937.4
2018-10-18T01:57:43.355Z,937.5
2018-10-18T01:58:43.263Z,937.4
2018-10-18T01:59:43.176Z,937.5
2018-10-18T02:00:43.084Z,937.4
2018-10-18T02:01:43.002Z,937.5
2018-10-18T02:02:42.929Z,937.1
2018-10-18T02:03:42.892Z,937.5
2018-10-18T02:04:42.800Z,937.4
2018-10-18T02:05:42.707Z,937.5
2018-10-18T02:06:42.633Z,937.4
2018-10-18T02:07:42.798Z,937.5
2018-10-18T02:08:42.580Z,937.5
2018-10-18T02:09:43.325Z,937.5
2018-10-18T02:10:43.073Z,937.5
2018-10-18T02:11:42.814Z,937.5
2018-10-18T02:12:42.553Z,937.5
2018-10-18T02:13:43.033Z,937.5
2018-10-18T02:14:42.824Z,937.5
2018-10-18T02:15:42.559Z,937.5
2018-10-18T02:16:42.297Z,937.5
2018-10-18T02:17:42.721Z,937.5
2018-10-18T02:18:42.629Z,937.5
2018-10-18T02:19:42.545Z,937.5
2018-10-18T02:20:42.453Z,937.5
2018-10-18T02:21:42.375Z,937.5
2018-10-18T02:22:42.291Z,937.5
2018-10-18T02:23:42.210Z,937.5
2018-10-18T02:24:42.132Z,937.4
2018-10-18T02:25:42.032Z,937.5
2018-10-18T02:26:41.938Z,937.5
2018-10-18T02:27:42.112Z,937.5
2018-10-18T02:28:41.849Z,937.4
2018-10-18T02:29:41.591Z,937.4
2018-10-18T02:30:41.350Z,937.4
2018-10-18T02:31:41.096Z,937.4
2018-10-18T02:32:40.867Z,937.4
2018-10-18T02:33:40.613Z,937.5
2018-10-18T02:34:40.379Z,937.4
2018-10-18T02:35:40.136Z,937.5
2018-10-18T02:36:39.891Z,937.4
2018-10-18T02:37:40.076Z,937.4
2018-10-18T02:38:39.813Z,937.5
2018-10-18T02:39:39.538Z,937.4
2018-10-18T02:40:39.297Z,937.3
2018-10-18T02:41:39.064Z,937.4
2018-10-18T02:42:38.826Z,937.3
2018-10-18T02:43:38.582Z,937.3
2018-10-18T02:44:38.329Z,937.3
2018-10-18T02:45:38.061Z,937.4
2018-10-18T02:46:37.828Z,937.3
2018-10-18T02:47:38.178Z,937.4
2018-10-18T02:48:38.126Z,937.2
2018-10-18T02:49:38.046Z,937.4
2018-10-18T02:50:37.972Z,937.3
2018-10-18T02:51:37.923Z,937.3
2018-10-18T02:52:37.835Z,937.3
2018-10-18T02:53:37.763Z,937.4
2018-10-18T02:54:37.665Z,937.4
2018-10-18T02:55:37.568Z,937.4
2018-10-18T02:56:37.495Z,937.3
2018-10-18T02:57:37.750Z,937.3
2018-10-18T02:58:37.518Z,937.4
2018-10-18T02:59:37.269Z,937.3
2018-10-18T03:00:37.008Z,937.3
2018-10-18T03:01:36.766Z,937.2
2018-10-18T03:02:36.576Z,937.3
2018-10-18T03:03:36.317Z,937.4
2018-10-18T03:04:36.059Z,937.3
2018-10-18T03:05:35.804Z,937.4
2018-10-18T03:06:35.584Z,936.9
2018-10-18T03:07:35.974Z,937.4
2018-10-18T03:08:36.077Z,937.4
2018-10-18T03:09:35.982Z,937.3
2018-10-18T03:10:35.893Z,937.4
2018-10-18T03:11:35.800Z,937.2
2018-10-18T03:12:35.789Z,937.4
2018-10-18T03:13:35.769Z,937.4
2018-10-18T03:14:35.714Z,937.4
2018-10-18T03:15:35.630Z,937.2
2018-10-18T03:16:35.547Z,937.3
2018-10-18T03:17:35.894Z,937.3
2018-10-18T03:18:36.042Z,937.4
2018-10-18T03:19:35.962Z,937.2
2018-10-18T03:20:35.891Z,937.3
2018-10-18T03:21:35.814Z,937.3
2018-10-18T03:22:35.724Z,937.4
2018-10-18T03:23:35.648Z,937.4
2018-10-18T03:24:35.590Z,937.3
2018-10-18T03:25:35.509Z,937.3
2018-10-18T03:26:35.419Z,937.2
2018-10-18T03:27:35.669Z,937.4
2018-10-18T03:28:35.396Z,937.3
2018-10-18T03:29:35.169Z,937.5
2018-10-18T03:30:34.915Z,937.3
2018-10-18T03:31:34.692Z,937.3
2018-10-18T03:32:34.439Z,937.3
2018-10-18T03:33:34.181Z,937.4
2018-10-18T03:34:33.925Z,937.3
2018-10-18T03:35:33.690Z,937.4
2018-10-18T03:36:33.434Z,937.3
2018-10-18T03:37:33.793Z,937.4
2018-10-18T03:38:33.716Z,937.4
2018-10-18T03:39:33.645Z,937.4
2018-10-18T03:40:33.594Z,937.4
2018-10-18T03:41:34.417Z,937.4
2018-10-18T03:42:34.448Z,937.3
2018-10-18T03:43:34.361Z,937.4
2018-10-18T03:44:34.306Z,937.4
2018-10-18T03:45:34.227Z,937.3
2018-10-18T03:46:34.162Z,937.4
2018-10-18T03:47:34.572Z,937.3
2018-10-18T03:48:34.480Z,937.4
2018-10-18T03:49:34.384Z,937.4
2018-10-18T03:50:34.303Z,937.4
2018-10-18T03:51:34.218Z,937.4
2018-10-18T03:52:34.130Z,937.5
2018-10-18T03:53:34.045Z,937.3
2018-10-18T03:54:34.009Z,937.4
2018-10-18T03:55:33.919Z,937.4
2018-10-18T03:56:33.844Z,937.3
2018-10-18T03:57:34.216Z,937.4
2018-10-18T03:58:34.126Z,937.4
2018-10-18T03:59:34.529Z,937.4
2018-10-18T04:00:34.489Z,937.3
2018-10-18T04:01:34.448Z,937.4
2018-10-18T04:02:34.359Z,937.4
2018-10-18T04:03:34.265Z,937.4
2018-10-18T04:04:34.167Z,937.4
2018-10-18T04:05:34.090Z,937.3
2018-10-18T04:06:34.004Z,937.3
2018-10-18T04:07:34.375Z,937.4
2018-10-18T04:08:34.344Z,937.3
2018-10-18T04:09:34.264Z,937.2
2018-10-18T04:10:34.169Z,937.2
2018-10-18T04:11:34.075Z,937.2
2018-10-18T04:12:34.228Z,937.3
2018-10-18T04:13:34.221Z,937.2
2018-10-18T04:14:34.147Z,937.3
2018-10-18T04:15:34.115Z,937.2
2018-10-18T04:16:34.037Z,937.2
2018-10-18T04:17:34.436Z,937.2
2018-10-18T04:18:35.409Z,937.2
2018-10-18T04:19:35.381Z,937.3
2018-10-18T04:20:35.325Z,937.2
2018-10-18T04:21:35.265Z,937.1
2018-10-18T04:22:35.216Z,937.2
2018-10-18T04:23:35.156Z,937.3
2018-10-18T04:24:35.097Z,937.2
2018-10-18T04:25:35.879Z,937.3
2018-10-18T04:26:36.045Z,937.3
2018-10-18T04:27:36.463Z,937.2
2018-10-18T04:28:36.562Z,937.2
2018-10-18T04:29:36.479Z,937.2
2018-10-18T04:30:36.401Z,937.2
2018-10-18T04:31:36.333Z,937.3
2018-10-18T04:32:36.265Z,937
2018-10-18T04:33:36.180Z,937.3
2018-10-18T04:34:36.103Z,937.3
2018-10-18T04:35:36.075Z,937.2
2018-10-18T04:36:36.025Z,937.2
2018-10-18T04:37:37.542Z,937.3
2018-10-18T04:38:37.584Z,937.3
2018-10-18T04:39:37.496Z,937.3
2018-10-18T04:40:37.474Z,937.3
2018-10-18T04:41:37.399Z,937.3
2018-10-18T04:42:37.312Z,937.2
2018-10-18T04:43:37.236Z,937.3
2018-10-18T04:44:37.188Z,937.3
2018-10-18T04:45:37.101Z,937.3
2018-10-18T04:46:37.013Z,937.2
2018-10-18T04:47:38.500Z,937.2
2018-10-18T04:48:39.163Z,937.2
2018-10-18T04:49:39.096Z,937.2
2018-10-18T04:50:39.030Z,937.2
2018-10-18T04:51:38.938Z,937.1
2018-10-18T04:52:38.889Z,937.3
2018-10-18T04:53:38.805Z,937.2
2018-10-18T04:54:38.735Z,937.2
2018-10-18T04:55:38.663Z,937.2
2018-10-18T04:56:38.803Z,937.3
2018-10-18T04:57:39.237Z,937.3
2018-10-18T04:58:39.162Z,937.2
2018-10-18T04:59:39.098Z,937.2
2018-10-18T05:00:39.023Z,937.3
2018-10-18T05:01:38.933Z,937.2
2018-10-18T05:02:39.649Z,937.1
2018-10-18T05:03:39.610Z,937.3
2018-10-18T05:04:39.528Z,937.3
2018-10-18T05:05:39.461Z,937.3
2018-10-18T05:06:39.375Z,937.3
2018-10-18T05:07:40.189Z,937.3
2018-10-18T05:08:40.104Z,937.2
2018-10-18T05:09:40.032Z,937.3
2018-10-18T05:10:39.958Z,937.3
2018-10-18T05:11:39.891Z,937.3
2018-10-18T05:12:40.653Z,937.3
2018-10-18T05:13:40.603Z,937.3
2018-10-18T05:14:40.508Z,937.3
2018-10-18T05:15:40.445Z,937.4
2018-10-18T05:16:40.351Z,937.3
2018-10-18T05:17:40.701Z,937.3
2018-10-18T05:18:40.625Z,937.3
2018-10-18T05:19:40.534Z,937.4
2018-10-18T05:20:40.442Z,937.4
2018-10-18T05:21:40.360Z,937.4
2018-10-18T05:22:40.266Z,937.4
2018-10-18T05:23:40.534Z,936.8
2018-10-18T05:24:40.483Z,937.4
2018-10-18T05:25:41.354Z,937.5
2018-10-18T05:26:41.321Z,937.4
2018-10-18T05:27:41.662Z,937.3
2018-10-18T05:28:41.581Z,937.4
2018-10-18T05:29:41.524Z,937.4
2018-10-18T05:30:41.446Z,937.5
2018-10-18T05:31:42.310Z,937.5
2018-10-18T05:32:42.319Z,937.4
2018-10-18T05:33:42.233Z,937.4
2018-10-18T05:34:42.149Z,937.5
2018-10-18T05:35:42.080Z,937.5
2018-10-18T05:36:42.031Z,937.5
2018-10-18T05:37:43.775Z,937.4
2018-10-18T05:38:43.725Z,937.4
2018-10-18T05:39:43.664Z,937.4
2018-10-18T05:40:43.579Z,937.5
2018-10-18T05:41:43.521Z,937.5
2018-10-18T05:42:43.432Z,937.5
2018-10-18T05:43:43.338Z,937.5
2018-10-18T05:44:43.261Z,937.5
2018-10-18T05:45:43.201Z,937.5
2018-10-18T05:46:43.934Z,937.5
2018-10-18T05:47:44.982Z,937.6
2018-10-18T05:48:44.893Z,937.6
2018-10-18T05:49:44.813Z,937.6
2018-10-18T05:50:44.734Z,937.5
2018-10-18T05:51:44.643Z,937.5
2018-10-18T05:52:44.564Z,937.6
2018-10-18T05:53:45.898Z,937.6
2018-10-18T05:54:45.820Z,937.5
2018-10-18T05:55:45.739Z,936.9
2018-10-18T05:56:45.664Z,937.6
2018-10-18T05:57:46.057Z,937.5
2018-10-18T05:58:45.965Z,937.6
2018-10-18T05:59:45.912Z,937.6
2018-10-18T06:00:45.835Z,937.7
2018-10-18T06:01:45.749Z,937.7
2018-10-18T06:02:45.660Z,937.7
2018-10-18T06:03:45.595Z,937.7
2018-10-18T06:04:45.500Z,937.6
2018-10-18T06:05:45.397Z,937.2
2018-10-18T06:06:45.314Z,937.7
2018-10-18T06:07:46.521Z,937.6
2018-10-18T06:08:46.465Z,937.8
2018-10-18T06:09:46.710Z,937.7
2018-10-18T06:10:46.672Z,937.7
2018-10-18T06:11:46.588Z,937.8
2018-10-18T06:12:46.494Z,937.8
2018-10-18T06:13:46.458Z,937.8
2018-10-18T06:14:46.396Z,937.1
2018-10-18T06:15:46.297Z,937.7
2018-10-18T06:16:46.214Z,937.8
2018-10-18T06:17:46.593Z,937.7
2018-10-18T06:18:46.625Z,937.7
2018-10-18T06:19:46.531Z,937.8
2018-10-18T06:20:46.451Z,937.9
2018-10-18T06:21:46.367Z,937.9
2018-10-18T06:22:46.946Z,937.8
2018-10-18T06:23:46.928Z,937.8
2018-10-18T06:24:46.842Z,937.8
2018-10-18T06:25:46.750Z,937.7
2018-10-18T06:26:46.677Z,937.8
2018-10-18T06:27:46.870Z,937.7
2018-10-18T06:28:46.651Z,937.8
2018-10-18T06:29:46.420Z,937.8
2018-10-18T06:30:46.157Z,937.9
2018-10-18T06:31:45.890Z,937.8
2018-10-18T06:32:45.653Z,937.8
2018-10-18T06:33:45.401Z,937.8
2018-10-18T06:34:45.165Z,937.7
2018-10-18T06:35:44.919Z,937.9
2018-10-18T06:36:44.659Z,937.8
2018-10-18T06:37:45.834Z,937.9
2018-10-18T06:38:45.754Z,937.9
2018-10-18T06:39:45.686Z,938
2018-10-18T06:40:45.602Z,937.9
2018-10-18T06:41:45.529Z,937.9
2018-10-18T06:42:45.441Z,938
2018-10-18T06:43:45.355Z,937.9
2018-10-18T06:44:45.275Z,938
2018-10-18T06:45:45.234Z,938
2018-10-18T06:46:45.548Z,938
2018-10-18T06:47:47.787Z,938
2018-10-18T06:48:48.063Z,937.6
2018-10-18T06:49:47.978Z,938
2018-10-18T06:50:47.922Z,938
2018-10-18T06:51:47.832Z,938
2018-10-18T06:52:47.757Z,937.9
2018-10-18T06:53:47.699Z,938
2018-10-18T06:54:47.621Z,938
2018-10-18T06:55:47.543Z,938
2018-10-18T06:56:47.446Z,938
2018-10-18T06:57:47.811Z,938
2018-10-18T06:58:47.715Z,938
2018-10-18T06:59:48.246Z,938
2018-10-18T07:00:48.287Z,938
2018-10-18T07:01:48.199Z,938
2018-10-18T07:02:48.092Z,938
2018-10-18T07:03:48.016Z,938
2018-10-18T07:04:47.960Z,937.5
2018-10-18T07:05:47.863Z,938.1
2018-10-18T07:06:47.790Z,938.1
2018-10-18T07:07:48.130Z,938.1
2018-10-18T07:08:48.277Z,938.1
2018-10-18T07:09:48.212Z,938.1
2018-10-18T07:10:48.638Z,938.1
2018-10-18T07:11:48.635Z,938.2
2018-10-18T07:12:48.546Z,938.2
2018-10-18T07:13:48.462Z,938.2
2018-10-18T07:14:48.360Z,938.1
2018-10-18T07:15:48.281Z,938.1
2018-10-18T07:16:48.212Z,938.2
2018-10-18T07:17:49.714Z,938.2
2018-10-18T07:18:49.668Z,938.2
2018-10-18T07:19:49.584Z,938.1
2018-10-18T07:20:49.497Z,938.2
2018-10-18T07:21:49.439Z,938.2
2018-10-18T07:22:49.361Z,938.2
2018-10-18T07:23:49.267Z,938.2
2018-10-18T07:24:49.178Z,938.2
2018-10-18T07:25:49.094Z,938.2
2018-10-18T07:26:49.005Z,938.1
2018-10-18T07:27:49.223Z,938.2
2018-10-18T07:28:48.958Z,938.3
2018-10-18T07:29:48.694Z,938.3
2018-10-18T07:30:48.429Z,938.3
2018-10-18T07:31:48.184Z,938.3
2018-10-18T07:32:47.935Z,938.3
2018-10-18T07:33:47.674Z,938.3
2018-10-18T07:34:47.561Z,938.3
2018-10-18T07:35:47.305Z,938.3
2018-10-18T07:36:47.054Z,938.2
2018-10-18T07:37:47.414Z,938.3
2018-10-18T07:38:47.318Z,938.3
2018-10-18T07:39:47.219Z,938.3
2018-10-18T07:40:47.173Z,938.2
2018-10-18T07:41:47.086Z,938.3
2018-10-18T07:42:47.016Z,938.3
2018-10-18T07:43:46.941Z,938.2
2018-10-18T07:44:46.856Z,938.3
2018-10-18T07:45:46.758Z,938.3
2018-10-18T07:46:47.252Z,938.3
2018-10-18T07:47:47.791Z,938.3
2018-10-18T07:48:47.700Z,938.3
2018-10-18T07:49:47.610Z,938.3
2018-10-18T07:50:47.521Z,938.3
2018-10-18T07:51:47.433Z,938.2
2018-10-18T07:52:47.426Z,938.3
2018-10-18T07:53:47.351Z,938.3
2018-10-18T07:54:47.254Z,938.3
2018-10-18T07:55:47.192Z,938.4
2018-10-18T07:56:47.100Z,938.5
2018-10-18T07:57:47.460Z,938.3
2018-10-18T07:58:47.413Z,938.3
2018-10-18T07:59:47.624Z,938.4
2018-10-18T08:00:49.095Z,938
2018-10-18T08:01:49.087Z,938.4
2018-10-18T08:02:49.019Z,938.4
2018-10-18T08:03:49.002Z,938.4
2018-10-18T08:04:48.914Z,938.4
2018-10-18T08:05:48.833Z,938.4
2018-10-18T08:06:48.744Z,938.4
2018-10-18T08:07:49.098Z,938.4
2018-10-18T08:08:49.015Z,938.4
2018-10-18T08:09:49.219Z,938.4
2018-10-18T08:10:49.417Z,938.5
2018-10-18T08:11:49.356Z,938.4
2018-10-18T08:12:49.271Z,938.4
2018-10-18T08:13:49.179Z,938.4
2018-10-18T08:14:49.145Z,938.4
2018-10-18T08:15:49.098Z,938.4
2018-10-18T08:16:49.556Z,938.3
2018-10-18T08:17:50.639Z,938.4
2018-10-18T08:18:50.568Z,938.4
2018-10-18T08:19:50.485Z,938.3
2018-10-18T08:20:50.394Z,938.3
2018-10-18T08:21:50.312Z,938.4
2018-10-18T08:22:50.225Z,938.4
2018-10-18T08:23:50.132Z,938.4
2018-10-18T08:24:50.069Z,938.4
2018-10-18T08:25:50.041Z,938.3
2018-10-18T08:26:49.949Z,938.3
2018-10-18T08:27:50.310Z,938.5
2018-10-18T08:28:50.229Z,938.5
2018-10-18T08:29:50.151Z,938.4
2018-10-18T08:30:50.072Z,937.9
2018-10-18T08:31:50.864Z,938.4
2018-10-18T08:32:50.983Z,938.5
2018-10-18T08:33:50.906Z,938.4
2018-10-18T08:34:50.859Z,938.4
2018-10-18T08:35:50.798Z,938.4
2018-10-18T08:36:50.704Z,938.3
2018-10-18T08:37:52.032Z,938.3
2018-10-18T08:38:51.869Z,938.4
2018-10-18T08:39:51.627Z,938.5
2018-10-18T08:40:51.758Z,938.4
2018-10-18T08:41:51.503Z,938.5
2018-10-18T08:42:51.239Z,938.5
2018-10-18T08:43:51.226Z,938.4
2018-10-18T08:44:51.020Z,938.5
2018-10-18T08:45:50.757Z,938.5
2018-10-18T08:46:50.518Z,938.5
2018-10-18T08:47:50.890Z,938.5
2018-10-18T08:48:50.822Z,938.5
2018-10-18T08:49:51.470Z,938.5
2018-10-18T08:50:51.451Z,938.5
2018-10-18T08:51:51.379Z,938.6
2018-10-18T08:52:51.300Z,938.5
2018-10-18T08:53:51.218Z,938.5
2018-10-18T08:54:51.124Z,938.5
2018-10-18T08:55:51.038Z,938.4
2018-10-18T08:56:50.993Z,938.6
2018-10-18T08:57:51.379Z,938.7
2018-10-18T08:58:51.287Z,938.6
2018-10-18T08:59:51.190Z,938.5
2018-10-18T09:00:51.116Z,938.6
2018-10-18T09:01:51.061Z,938.5
2018-10-18T09:02:50.987Z,938.5
2018-10-18T09:03:50.900Z,938.5
2018-10-18T09:04:50.815Z,938
2018-10-18T09:05:50.730Z,938.7
2018-10-18T09:06:50.649Z,938.6
2018-10-18T09:07:51.018Z,938.5
2018-10-18T09:08:51.084Z,938.6
2018-10-18T09:09:51.028Z,938.6
2018-10-18T09:10:50.943Z,938.5
2018-10-18T09:11:50.840Z,938.6
2018-10-18T09:12:50.772Z,938.6
2018-10-18T09:13:50.705Z,938.7
2018-10-18T09:14:50.627Z,938.7
2018-10-18T09:15:50.943Z,938.7
2018-10-18T09:16:50.878Z,938.6
2018-10-18T09:17:51.232Z,938.7
2018-10-18T09:18:51.148Z,938.6
2018-10-18T09:19:51.057Z,938.6
2018-10-18T09:20:50.991Z,938.6
2018-10-18T09:21:50.902Z,938.5
2018-10-18T09:22:50.815Z,938.6
2018-10-18T09:23:51.610Z,938.5
2018-10-18T09:24:51.694Z,938.6
2018-10-18T09:25:51.614Z,938.5
2018-10-18T09:26:51.529Z,938.6
2018-10-18T09:27:51.911Z,938.6
2018-10-18T09:28:51.873Z,938.6
2018-10-18T09:29:51.780Z,938.6
2018-10-18T09:30:54.501Z,938.5
2018-10-18T09:31:54.438Z,938.5
2018-10-18T09:32:54.351Z,938.6
2018-10-18T09:33:54.279Z,938.5
2018-10-18T09:34:54.205Z,938.6
2018-10-18T09:35:54.136Z,938.5
2018-10-18T09:36:54.284Z,938.6
2018-10-18T09:37:54.560Z,938.6
2018-10-18T09:38:54.304Z,938.5
2018-10-18T09:39:54.061Z,938.6
2018-10-18T09:40:53.797Z,938.6
2018-10-18T09:41:53.540Z,938.6
2018-10-18T09:42:53.366Z,938.5
2018-10-18T09:43:53.134Z,938.6
2018-10-18T09:44:53.516Z,938.5
2018-10-18T09:45:53.367Z,938.6
2018-10-18T09:46:53.104Z,938.6
2018-10-18T09:47:53.561Z,938.5
2018-10-18T09:48:53.503Z,938.6
2018-10-18T09:49:53.296Z,938.6
2018-10-18T09:50:53.044Z,938.5
2018-10-18T09:51:52.785Z,938.5
2018-10-18T09:52:52.738Z,938.1
2018-10-18T09:53:52.488Z,938.5
2018-10-18T09:54:52.335Z,938.5
2018-10-18T09:55:52.216Z,938.4
2018-10-18T09:56:51.955Z,938.6
2018-10-18T09:57:52.312Z,938.5
2018-10-18T09:58:52.244Z,938.6
2018-10-18T09:59:52.176Z,938.6
2018-10-18T10:00:52.182Z,938.5
2018-10-18T10:01:52.134Z,938.5
2018-10-18T10:02:52.068Z,938.5
2018-10-18T10:03:51.969Z,938.6
2018-10-18T10:04:51.920Z,938.5
2018-10-18T10:05:51.838Z,938.5
2018-10-18T10:06:51.857Z,938.5
2018-10-18T10:07:52.300Z,938.5
2018-10-18T10:08:52.209Z,938.6
2018-10-18T10:09:52.122Z,938.6
2018-10-18T10:10:52.048Z,938.5
2018-10-18T10:11:52.875Z,938.4
2018-10-18T10:12:52.983Z,938.5
2018-10-18T10:13:52.905Z,938.4
2018-10-18T10:14:52.828Z,937.9
2018-10-18T10:15:52.748Z,938.5
2018-10-18T10:16:52.675Z,938.5
2018-10-18T10:17:53.188Z,938.5
2018-10-18T10:18:53.224Z,938.5
2018-10-18T10:19:53.132Z,938.5
2018-10-18T10:20:53.072Z,938.3
2018-10-18T10:21:53.007Z,938.5
2018-10-18T10:22:52.933Z,938.5
2018-10-18T10:23:52.843Z,938.4
2018-10-18T10:24:52.928Z,938.4
2018-10-18T10:25:52.850Z,938.5
2018-10-18T10:26:52.755Z,938.5
2018-10-18T10:27:53.128Z,938.4
2018-10-18T10:28:53.034Z,938.5
2018-10-18T10:29:52.944Z,938.5
2018-10-18T10:30:53.065Z,938.4
2018-10-18T10:31:52.987Z,938.4
2018-10-18T10:32:53.491Z,938.3
2018-10-18T10:33:53.492Z,938.4
2018-10-18T10:34:53.599Z,938.4
2018-10-18T10:35:53.535Z,938.3
2018-10-18T10:36:53.628Z,938.4
2018-10-18T10:37:53.872Z,938.4
2018-10-18T10:38:53.720Z,938.3
2018-10-18T10:39:53.642Z,938.4
2018-10-18T10:40:53.517Z,938.4
2018-10-18T10:41:53.318Z,938.3
2018-10-18T10:42:53.574Z,938.4
2018-10-18T10:43:53.494Z,938.4
2018-10-18T10:44:53.617Z,938.3
2018-10-18T10:45:54.157Z,938.3
2018-10-18T10:46:53.990Z,938.3
2018-10-18T10:47:54.667Z,938.3
2018-10-18T10:48:54.713Z,938.3
2018-10-18T10:49:54.831Z,938.2
2018-10-18T10:50:55.041Z,938.3
2018-10-18T10:51:55.085Z,938.3
2018-10-18T10:52:55.017Z,938.3
2018-10-18T10:53:55.183Z,938.3
2018-10-18T10:54:55.113Z,938.2
2018-10-18T10:55:55.385Z,938.3
2018-10-18T10:56:55.573Z,938.1
2018-10-18T10:57:56.297Z,938.3
2018-10-18T10:58:56.797Z,938.2
2018-10-18T10:59:57.084Z,938.2
2018-10-18T11:00:56.991Z,938.2
2018-10-18T11:01:57.245Z,938.1
2018-10-18T11:02:57.507Z,938.2
2018-10-18T11:03:57.476Z,938.2
2018-10-18T11:04:57.389Z,938.1
2018-10-18T11:05:57.516Z,938.2
2018-10-18T11:06:57.439Z,938.2
2018-10-18T11:07:58.029Z,938.2
2018-10-18T11:08:58.358Z,938.2
2018-10-18T11:09:58.346Z,938.1
2018-10-18T11:10:58.263Z,938.1
2018-10-18T11:11:59.005Z,938
2018-10-18T11:12:59.010Z,938.1
2018-10-18T11:13:59.190Z,938
2018-10-18T11:14:59.374Z,938.2
2018-10-18T11:15:59.288Z,938
2018-10-18T11:16:59.484Z,938
2018-10-18T11:18:00.314Z,938.1
2018-10-18T11:19:00.238Z,938
2018-10-18T11:20:00.522Z,938
2018-10-18T11:21:00.736Z,938.1
2018-10-18T11:22:00.678Z,938.1
2018-10-18T11:23:00.590Z,938
2018-10-18T11:24:00.982Z,938
2018-10-18T11:25:00.944Z,938.1
2018-10-18T11:26:01.231Z,938
2018-10-18T11:27:01.707Z,938
2018-10-18T11:28:02.212Z,938
2018-10-18T11:29:02.146Z,937.9
2018-10-18T11:30:02.761Z,938
2018-10-18T11:31:02.682Z,937.9
2018-10-18T11:32:03.057Z,938.1
2018-10-18T11:33:03.303Z,937.9
2018-10-18T11:34:03.230Z,937.9
2018-10-18T11:35:03.158Z,938
2018-10-18T11:36:03.589Z,937.9
2018-10-18T11:37:03.509Z,937.9
2018-10-18T11:38:04.462Z,937.8
2018-10-18T11:39:04.368Z,937.9
2018-10-18T11:40:04.505Z,938
2018-10-18T11:41:04.437Z,938
2018-10-18T11:42:04.886Z,938
2018-10-18T11:43:04.871Z,937.9
2018-10-18T11:44:05.348Z,937.9
2018-10-18T11:45:05.329Z,938
2018-10-18T11:46:05.269Z,937.9
2018-10-18T11:47:05.193Z,937.9
2018-10-18T11:48:06.117Z,937.9
2018-10-18T11:49:06.130Z,937.9
2018-10-18T11:50:06.710Z,937.9
2018-10-18T11:51:06.709Z,937.9
2018-10-18T11:52:07.285Z,937.8
2018-10-18T11:53:07.277Z,937.9
2018-10-18T11:54:07.978Z,938
2018-10-18T11:55:07.988Z,937.9
2018-10-18T11:56:08.633Z,937.9
2018-10-18T11:57:08.592Z,937.8
2018-10-18T11:58:08.957Z,937.9
2018-10-18T11:59:09.670Z,937.9
2018-10-18T12:00:09.627Z,937.4
2018-10-18T12:01:10.052Z,937.9
2018-10-18T12:02:10.776Z,937.9
2018-10-18T12:03:10.777Z,937.8
2018-10-18T12:04:10.704Z,937.8
2018-10-18T12:05:11.143Z,937.9
2018-10-18T12:06:11.121Z,937.9
2018-10-18T12:07:11.108Z,937.8
2018-10-18T12:08:12.186Z,937.8
2018-10-18T12:09:12.187Z,937.9
2018-10-18T12:10:12.096Z,937.9
2018-10-18T12:11:12.661Z,937.8
2018-10-18T12:12:12.660Z,937.8
2018-10-18T12:13:12.561Z,937.9
2018-10-18T12:14:13.250Z,937.8
2018-10-18T12:15:13.253Z,937.8
2018-10-18T12:16:13.162Z,937.9
2018-10-18T12:17:13.973Z,937.8
2018-10-18T12:18:14.523Z,937.8
2018-10-18T12:19:15.510Z,937.8
2018-10-18T12:20:16.371Z,937.8
2018-10-18T12:21:16.373Z,937.8
2018-10-18T12:22:16.308Z,937.8
2018-10-18T12:23:17.231Z,937.8
2018-10-18T12:24:17.193Z,937.8
2018-10-18T12:25:17.108Z,937.7
2018-10-18T12:26:17.984Z,937.7
2018-10-18T12:27:17.969Z,937.7
2018-10-18T12:28:18.338Z,937.8
2018-10-18T12:29:19.161Z,937.8
2018-10-18T12:30:19.193Z,937.7
2018-10-18T12:31:19.118Z,937.7
2018-10-18T12:32:19.063Z,937.6
2018-10-18T12:33:18.996Z,937.7
2018-10-18T12:34:18.897Z,937.6
2018-10-18T12:35:19.440Z,937.7
2018-10-18T12:36:19.356Z,937.7
2018-10-18T12:37:19.261Z,937.7
2018-10-18T12:38:19.747Z,937.7
2018-10-18T12:39:19.764Z,937.6
2018-10-18T12:40:20.357Z,937.5
2018-10-18T12:41:22.406Z,937.6
2018-10-18T12:42:22.446Z,937.6
2018-10-18T12:43:22.390Z,937.7
2018-10-18T12:44:22.308Z,937.7
2018-10-18T12:45:22.237Z,937.6
2018-10-18T12:46:22.144Z,937.6
2018-10-18T12:47:22.060Z,937.6
2018-10-18T12:48:23.901Z,937.6
2018-10-18T12:49:23.912Z,937.6
2018-10-18T12:50:23.816Z,937.7
2018-10-18T12:51:23.734Z,937.7
2018-10-18T12:52:23.647Z,937.6
2018-10-18T12:53:23.598Z,937.5
2018-10-18T12:54:23.768Z,937.6
2018-10-18T12:55:23.718Z,937.5
2018-10-18T12:56:23.633Z,937.1